createdAt,value
2022-09-13T00:00:09.992Z,20.03
2022-09-13T00:02:13.301Z,20.01
2022-09-13T00:04:16.660Z,20.05
2022-09-13T00:06:21.504Z,20.01
2022-09-13T00:08:25.387Z,19.99
2022-09-13T00:10:28.688Z,19.99
2022-09-13T00:12:31.987Z,19.96
2022-09-13T00:14:35.305Z,20.00
2022-09-13T00:16:40.057Z,19.99
2022-09-13T00:18:43.968Z,19.84
2022-09-13T00:20:47.580Z,19.81
2022-09-13T00:22:51.020Z,19.78
2022-09-13T00:24:54.418Z,19.65
2022-09-13T00:26:57.733Z,19.61
2022-09-13T00:29:01.059Z,19.55
2022-09-13T00:31:05.977Z,19.55
2022-09-13T00:33:10.674Z,19.59
2022-09-13T00:35:13.997Z,19.65
2022-09-13T00:37:17.354Z,19.67
2022-09-13T00:39:20.937Z,19.66
2022-09-13T00:41:24.213Z,19.67
2022-09-13T00:43:43.807Z,19.71
2022-09-13T00:45:48.644Z,19.74
2022-09-13T00:47:57.394Z,19.81
2022-09-13T00:50:07.327Z,19.88
2022-09-13T00:52:16.748Z,19.90
2022-09-13T00:54:23.418Z,19.88
2022-09-13T00:56:33.045Z,19.82
2022-09-13T00:58:41.926Z,19.68
2022-09-13T01:00:46.890Z,19.62
2022-09-13T01:02:53.730Z,19.63
2022-09-13T01:04:57.389Z,19.63
2022-09-13T01:07:08.429Z,19.61
2022-09-13T01:09:13.423Z,19.55
2022-09-13T01:11:23.780Z,19.48
2022-09-13T01:13:30.203Z,19.42
2022-09-13T01:15:33.507Z,19.34
2022-09-13T01:17:39.367Z,19.33
2022-09-13T01:19:43.053Z,19.27
2022-09-13T01:22:24.094Z,19.27
2022-09-13T01:24:56.469Z,19.31
2022-09-13T01:27:20.631Z,19.26
2022-09-13T01:30:01.007Z,19.27
2022-09-13T01:32:17.386Z,19.29
2022-09-13T01:34:31.998Z,19.17
2022-09-13T01:37:04.717Z,19.18
2022-09-13T01:39:14.087Z,19.02
2022-09-13T01:41:33.746Z,19.00
2022-09-13T01:43:48.326Z,18.94
2022-09-13T01:45:57.331Z,19.02
2022-09-13T01:48:07.414Z,19.16
2022-09-13T01:50:18.499Z,19.07
2022-09-13T01:52:28.970Z,18.99
2022-09-13T01:54:39.806Z,19.03
2022-09-13T01:56:52.565Z,19.01
2022-09-13T01:59:00.357Z,18.98
2022-09-13T02:01:09.615Z,19.15
2022-09-13T02:03:19.329Z,19.15
2022-09-13T02:05:28.722Z,19.07
2022-09-13T02:07:36.880Z,18.95
2022-09-13T02:09:44.820Z,19.09
2022-09-13T02:11:52.350Z,19.11
2022-09-13T02:14:00.523Z,19.03
2022-09-13T02:16:11.257Z,19.08
2022-09-13T02:18:21.134Z,19.08
2022-09-13T02:20:29.515Z,19.06
2022-09-13T02:22:36.835Z,19.00
2022-09-13T02:24:43.236Z,19.01
2022-09-13T02:26:49.394Z,19.09
2022-09-13T02:28:55.787Z,19.09
2022-09-13T02:31:00.540Z,18.85
2022-09-13T02:33:08.598Z,18.93
2022-09-13T02:35:20.050Z,19.00
2022-09-13T02:37:26.435Z,18.99
2022-09-13T02:39:33.355Z,18.90
2022-09-13T02:41:43.344Z,18.76
2022-09-13T02:43:52.170Z,18.42
2022-09-13T02:46:10.151Z,18.59
2022-09-13T02:48:22.201Z,18.60
2022-09-13T02:50:48.357Z,18.51
2022-09-13T02:53:01.675Z,18.34
2022-09-13T02:55:17.120Z,18.18
2022-09-13T02:57:27.131Z,18.21
2022-09-13T02:59:30.469Z,18.14
2022-09-13T03:01:35.371Z,18.18
2022-09-13T03:03:38.758Z,18.18
2022-09-13T03:05:43.957Z,18.16
2022-09-13T03:07:48.108Z,18.06
2022-09-13T03:09:55.692Z,18.09
2022-09-13T03:12:24.331Z,18.08
2022-09-13T03:14:42.104Z,18.10
2022-09-13T03:17:04.467Z,18.16
2022-09-13T03:19:29.508Z,18.07
2022-09-13T03:21:53.646Z,18.30
2022-09-13T03:24:09.048Z,18.26
2022-09-13T03:26:31.140Z,18.45
2022-09-13T03:28:41.152Z,18.38
2022-09-13T03:31:05.032Z,18.39
2022-09-13T03:33:18.825Z,18.21
2022-09-13T03:35:30.216Z,18.43
2022-09-13T03:37:43.487Z,18.54
2022-09-13T03:39:52.157Z,18.67
2022-09-13T03:42:00.096Z,18.75
2022-09-13T03:44:07.400Z,18.41
2022-09-13T03:46:16.219Z,18.28
2022-09-13T03:48:20.545Z,18.45
2022-09-13T03:50:26.370Z,18.53
2022-09-13T03:52:30.484Z,18.44
2022-09-13T03:54:38.843Z,18.29
2022-09-13T03:56:42.155Z,18.27
2022-09-13T03:58:46.521Z,18.09
2022-09-13T04:00:50.085Z,17.94
2022-09-13T04:02:53.451Z,17.96
2022-09-13T04:04:56.834Z,17.94
2022-09-13T04:07:04.131Z,17.92
2022-09-13T04:09:07.496Z,17.99
2022-09-13T04:11:12.551Z,18.08
2022-09-13T04:13:15.899Z,18.00
2022-09-13T04:15:19.390Z,17.97
2022-09-13T04:17:29.738Z,17.97
2022-09-13T04:19:38.765Z,18.04
2022-09-13T04:21:42.072Z,18.11
2022-09-13T04:23:45.557Z,18.24
2022-09-13T04:25:49.209Z,18.21
2022-09-13T04:27:56.977Z,17.96
2022-09-13T04:30:00.278Z,18.11
2022-09-13T04:32:04.196Z,18.10
2022-09-13T04:34:08.075Z,18.15
2022-09-13T04:36:11.506Z,18.29
2022-09-13T04:38:14.898Z,18.35
2022-09-13T04:40:18.539Z,18.35
2022-09-13T04:42:21.983Z,18.33
2022-09-13T04:44:27.143Z,18.54
2022-09-13T04:46:30.641Z,18.70
2022-09-13T04:48:34.139Z,18.80
2022-09-13T04:50:37.528Z,18.93
2022-09-13T04:52:40.819Z,19.00
2022-09-13T04:54:44.227Z,19.10
2022-09-13T04:56:47.810Z,19.08
2022-09-13T04:58:52.526Z,19.16
2022-09-13T05:01:02.171Z,19.22
2022-09-13T05:03:05.550Z,19.23
2022-09-13T05:05:09.963Z,19.19
2022-09-13T05:07:13.249Z,19.22
2022-09-13T05:09:17.248Z,19.10
2022-09-13T05:11:20.623Z,19.02
2022-09-13T05:13:23.874Z,18.89
2022-09-13T05:15:27.169Z,18.79
2022-09-13T05:17:32.346Z,18.96
2022-09-13T05:19:36.154Z,18.95
2022-09-13T05:21:39.706Z,18.77
2022-09-13T05:23:43.090Z,18.81
2022-09-13T05:25:47.418Z,18.65
2022-09-13T05:27:50.830Z,18.61
2022-09-13T05:29:54.125Z,18.62
2022-09-13T05:31:57.515Z,18.57
2022-09-13T05:34:04.931Z,18.57
2022-09-13T05:36:08.792Z,18.66
2022-09-13T05:38:12.311Z,18.49
2022-09-13T05:40:15.762Z,18.68
2022-09-13T05:42:19.671Z,18.66
2022-09-13T05:44:22.988Z,18.69
2022-09-13T05:46:26.346Z,18.79
2022-09-13T05:48:30.334Z,18.90
2022-09-13T05:50:57.766Z,18.97
2022-09-13T05:53:01.940Z,19.08
2022-09-13T05:55:05.753Z,18.93
2022-09-13T05:57:09.134Z,18.91
2022-09-13T05:59:14.493Z,18.98
2022-09-13T06:01:19.662Z,19.05
2022-09-13T06:03:23.101Z,19.11
2022-09-13T06:05:29.898Z,18.98
2022-09-13T06:07:36.552Z,18.84
2022-09-13T06:09:39.841Z,18.72
2022-09-13T06:11:43.173Z,18.63
2022-09-13T06:13:46.570Z,18.53
2022-09-13T06:15:49.895Z,18.52
2022-09-13T06:17:53.218Z,18.46
2022-09-13T06:19:57.128Z,18.43
2022-09-13T06:22:00.423Z,18.48
2022-09-13T06:24:05.454Z,18.48
2022-09-13T06:26:11.058Z,18.45
2022-09-13T06:28:14.546Z,18.53
2022-09-13T06:30:19.539Z,18.61
2022-09-13T06:32:23.172Z,18.66
2022-09-13T06:34:31.103Z,18.82
2022-09-13T06:36:34.806Z,18.84
2022-09-13T06:38:39.747Z,18.85
2022-09-13T06:40:44.773Z,18.88
2022-09-13T06:42:48.080Z,18.96
2022-09-13T06:44:51.368Z,19.10
2022-09-13T06:46:54.752Z,19.13
2022-09-13T06:49:00.893Z,18.98
2022-09-13T06:51:06.183Z,18.95
2022-09-13T06:53:09.438Z,18.91
2022-09-13T06:55:12.964Z,18.94
2022-09-13T06:57:17.976Z,18.87
2022-09-13T06:59:21.421Z,18.88
2022-09-13T07:01:26.842Z,18.92
2022-09-13T07:03:30.202Z,19.11
2022-09-13T07:05:33.648Z,19.11
2022-09-13T07:07:36.943Z,19.08
2022-09-13T07:09:41.018Z,19.09
2022-09-13T07:11:44.711Z,18.95
2022-09-13T07:13:50.762Z,18.84
2022-09-13T07:15:54.207Z,18.79
2022-09-13T07:17:57.882Z,18.76
2022-09-13T07:20:01.231Z,18.73
2022-09-13T07:22:05.002Z,18.75
2022-09-13T07:24:08.589Z,18.84
2022-09-13T07:26:11.940Z,18.95
2022-09-13T07:28:15.461Z,19.01
2022-09-13T07:30:20.314Z,19.04
2022-09-13T07:32:23.845Z,19.07
2022-09-13T07:34:28.337Z,19.12
2022-09-13T07:36:34.497Z,19.28
2022-09-13T07:38:39.497Z,19.31
2022-09-13T07:41:16.485Z,19.36
2022-09-13T07:43:19.788Z,19.38
2022-09-13T07:45:24.457Z,19.48
2022-09-13T07:47:28.007Z,19.53
2022-09-13T07:49:31.728Z,19.59
2022-09-13T07:51:37.508Z,19.69
2022-09-13T07:53:42.242Z,19.71
2022-09-13T07:55:45.619Z,19.83
2022-09-13T07:57:48.929Z,19.85
2022-09-13T07:59:52.336Z,19.93
2022-09-13T08:01:57.195Z,19.97
2022-09-13T08:04:02.260Z,20.01
2022-09-13T08:06:07.485Z,20.14
2022-09-13T08:08:10.830Z,20.17
2022-09-13T08:10:14.239Z,20.20
2022-09-13T08:12:17.524Z,20.20
2022-09-13T08:14:23.258Z,20.33
2022-09-13T08:16:28.378Z,20.39
2022-09-13T08:18:33.327Z,20.38
2022-09-13T08:20:38.081Z,20.43
2022-09-13T08:22:41.460Z,20.56
2022-09-13T08:24:44.787Z,20.67
2022-09-13T08:26:48.971Z,20.73
2022-09-13T08:28:57.405Z,20.71
2022-09-13T08:31:05.842Z,20.87
2022-09-13T08:33:09.343Z,21.01
2022-09-13T08:35:14.428Z,21.07
2022-09-13T08:37:17.752Z,20.99
2022-09-13T08:39:21.081Z,21.00
2022-09-13T08:41:42.128Z,21.19
2022-09-13T08:43:51.862Z,21.33
2022-09-13T08:46:01.764Z,21.38
2022-09-13T08:48:10.844Z,21.42
2022-09-13T08:50:20.685Z,21.39
2022-09-13T08:52:31.441Z,21.39
2022-09-13T08:54:34.993Z,21.33
2022-09-13T08:56:46.014Z,21.40
2022-09-13T08:59:26.226Z,21.37
2022-09-13T09:01:47.023Z,21.47
2022-09-13T09:03:59.829Z,21.50
2022-09-13T09:06:04.605Z,21.55
2022-09-13T09:08:14.207Z,21.67
2022-09-13T09:10:21.321Z,21.64
2022-09-13T09:12:34.368Z,21.75
2022-09-13T09:14:44.390Z,21.94
2022-09-13T09:16:52.196Z,22.02
2022-09-13T09:19:00.091Z,22.09
2022-09-13T09:21:06.901Z,22.12
2022-09-13T09:23:21.324Z,22.21
2022-09-13T09:25:27.038Z,22.23
2022-09-13T09:27:32.052Z,22.25
2022-09-13T09:29:38.183Z,22.42
2022-09-13T09:31:49.488Z,22.55
2022-09-13T09:34:10.679Z,22.44
2022-09-13T09:36:24.875Z,22.51
2022-09-13T09:38:37.071Z,22.45
2022-09-13T09:40:40.442Z,22.52
2022-09-13T09:42:46.538Z,22.57
2022-09-13T09:44:53.956Z,22.64
2022-09-13T09:47:02.389Z,22.87
2022-09-13T09:49:30.452Z,22.99
2022-09-13T09:51:35.196Z,23.05
2022-09-13T09:53:43.503Z,23.07
2022-09-13T09:55:50.486Z,23.08
2022-09-13T09:57:56.731Z,23.16
2022-09-13T10:00:11.914Z,23.40
2022-09-13T10:02:20.308Z,23.51
2022-09-13T10:04:24.230Z,23.60
2022-09-13T10:06:30.058Z,23.62
2022-09-13T10:08:36.986Z,23.77
2022-09-13T10:10:43.546Z,23.93
2022-09-13T10:12:52.165Z,23.98
2022-09-13T10:15:05.610Z,24.11
2022-09-13T10:17:18.025Z,24.11
2022-09-13T10:19:26.044Z,24.07
2022-09-13T10:21:29.919Z,24.29
2022-09-13T10:23:35.207Z,24.40
2022-09-13T10:25:39.640Z,24.44
2022-09-13T10:27:49.151Z,24.45
2022-09-13T10:29:56.787Z,24.67
2022-09-13T10:32:04.719Z,24.76
2022-09-13T10:34:15.156Z,24.95
2022-09-13T10:36:41.596Z,25.08
2022-09-13T10:38:58.286Z,25.38
2022-09-13T10:41:06.245Z,25.58
2022-09-13T10:43:19.462Z,25.51
2022-09-13T10:45:25.698Z,25.35
2022-09-13T10:47:35.688Z,25.51
2022-09-13T10:49:43.763Z,25.41
2022-09-13T10:51:47.167Z,25.46
2022-09-13T10:53:52.543Z,25.47
2022-09-13T10:55:56.013Z,25.51
2022-09-13T10:58:20.348Z,25.51
2022-09-13T11:00:31.022Z,25.39
2022-09-13T11:02:50.170Z,25.38
2022-09-13T11:05:22.312Z,25.33
2022-09-13T11:07:50.036Z,25.50
2022-09-13T11:10:02.612Z,25.61
2022-09-13T11:12:18.415Z,25.57
2022-09-13T11:14:39.826Z,25.48
2022-09-13T11:16:54.368Z,25.67
2022-09-13T11:19:22.572Z,25.70
2022-09-13T11:21:45.278Z,25.69
2022-09-13T11:24:13.240Z,25.63
2022-09-13T11:26:37.345Z,25.67
2022-09-13T11:28:53.222Z,25.60
2022-09-13T11:31:12.047Z,25.67
2022-09-13T11:33:31.228Z,25.85
2022-09-13T11:35:48.012Z,25.96
2022-09-13T11:38:03.286Z,26.01
2022-09-13T11:40:26.847Z,25.90
2022-09-13T11:42:46.923Z,26.01
2022-09-13T11:45:19.461Z,26.24
2022-09-13T11:47:41.721Z,26.45
2022-09-13T11:50:02.686Z,26.46
2022-09-13T11:52:15.128Z,26.45
2022-09-13T11:54:31.695Z,26.61
2022-09-13T11:56:39.880Z,26.62
2022-09-13T11:58:49.960Z,26.83
2022-09-13T12:00:58.258Z,27.10
2022-09-13T12:03:07.828Z,27.31
2022-09-13T12:05:24.530Z,27.63
2022-09-13T12:07:35.167Z,27.79
2022-09-13T12:09:47.288Z,28.07
2022-09-13T12:11:55.537Z,27.85
2022-09-13T12:14:03.528Z,27.99
2022-09-13T12:16:12.323Z,28.10
2022-09-13T12:18:20.363Z,28.14
2022-09-13T12:20:31.758Z,27.95
2022-09-13T12:22:36.891Z,28.22
2022-09-13T12:24:44.896Z,28.20
2022-09-13T12:26:54.036Z,28.13
2022-09-13T12:29:02.838Z,28.47
2022-09-13T12:31:11.276Z,28.86
2022-09-13T12:33:16.828Z,28.87
2022-09-13T12:35:27.079Z,28.87
2022-09-13T12:37:50.416Z,28.93
2022-09-13T12:40:11.629Z,28.78
2022-09-13T12:43:01.801Z,28.56
2022-09-13T12:45:25.484Z,28.74
2022-09-13T12:47:50.249Z,28.69
2022-09-13T12:52:50.775Z,28.88
2022-09-13T12:55:46.071Z,29.00
2022-09-13T12:57:58.626Z,29.27
2022-09-13T13:00:20.087Z,29.54
2022-09-13T13:02:29.462Z,29.53
2022-09-13T13:04:35.775Z,29.22
2022-09-13T13:06:42.207Z,29.12
2022-09-13T13:08:52.546Z,29.40
2022-09-13T13:11:05.251Z,29.45
2022-09-13T13:13:19.777Z,29.63
2022-09-13T13:16:01.153Z,30.01
2022-09-13T13:18:23.444Z,30.28
2022-09-13T13:20:47.912Z,30.22
2022-09-13T13:22:53.054Z,30.02
2022-09-13T13:24:56.627Z,29.93
2022-09-13T13:27:00.134Z,30.02
2022-09-13T13:29:15.422Z,29.71
2022-09-13T13:31:42.234Z,29.27
2022-09-13T13:33:50.013Z,29.09
2022-09-13T13:35:54.038Z,29.25
2022-09-13T13:38:16.187Z,29.27
2022-09-13T13:40:25.674Z,29.04
2022-09-13T13:42:31.678Z,28.93
2022-09-13T13:45:11.511Z,29.05
2022-09-13T13:47:53.861Z,29.01
2022-09-13T13:50:15.304Z,28.70
2022-09-13T13:52:39.886Z,28.42
2022-09-13T13:55:01.863Z,28.49
2022-09-13T13:57:24.077Z,28.46
2022-09-13T13:59:32.527Z,28.20
2022-09-13T14:01:40.210Z,27.96
2022-09-13T14:03:57.965Z,27.75
2022-09-13T14:06:10.300Z,27.79
2022-09-13T14:08:36.715Z,27.70
2022-09-13T14:10:50.448Z,27.72
2022-09-13T14:13:16.831Z,27.75
2022-09-13T14:15:47.473Z,28.15
2022-09-13T14:18:06.178Z,28.36
2022-09-13T14:20:14.092Z,28.44
2022-09-13T14:22:20.541Z,28.35
2022-09-13T14:24:25.345Z,28.20
2022-09-13T14:26:28.656Z,28.32
2022-09-13T14:28:33.805Z,27.84
2022-09-13T14:30:39.270Z,28.04
2022-09-13T14:32:45.311Z,28.32
2022-09-13T14:34:58.400Z,28.27
2022-09-13T14:37:16.539Z,28.06
2022-09-13T14:39:19.949Z,28.05
2022-09-13T14:41:30.429Z,28.13
2022-09-13T14:43:33.766Z,28.25
2022-09-13T14:45:39.373Z,28.34
2022-09-13T14:47:50.013Z,28.31
2022-09-13T14:50:03.757Z,28.32
2022-09-13T14:52:12.131Z,28.59
2022-09-13T14:54:20.970Z,28.49
2022-09-13T14:56:32.447Z,28.34
2022-09-13T14:58:43.895Z,28.46
2022-09-13T15:00:51.584Z,28.51
2022-09-13T15:02:57.515Z,28.57
2022-09-13T15:05:02.340Z,28.69
2022-09-13T15:07:19.684Z,28.95
2022-09-13T15:09:29.070Z,29.22
2022-09-13T15:11:35.632Z,29.15
2022-09-13T15:13:42.667Z,28.89
2022-09-13T15:15:46.321Z,28.77
2022-09-13T15:17:54.222Z,28.51
2022-09-13T15:20:05.349Z,28.25
2022-09-13T15:22:21.088Z,27.85
2022-09-13T15:24:31.454Z,27.73
2022-09-13T15:26:34.783Z,27.70
2022-09-13T15:28:51.078Z,27.57
2022-09-13T15:30:55.470Z,27.42
2022-09-13T15:33:18.298Z,27.29
2022-09-13T15:35:26.344Z,27.17
2022-09-13T15:37:34.173Z,27.03
2022-09-13T15:39:45.054Z,27.05
2022-09-13T15:41:56.482Z,27.04
2022-09-13T15:44:00.927Z,26.92
2022-09-13T15:46:04.623Z,26.85
2022-09-13T15:48:08.200Z,26.75
2022-09-13T15:50:21.012Z,26.76
2022-09-13T15:52:24.329Z,26.70
2022-09-13T15:54:34.087Z,26.68
2022-09-13T15:56:40.013Z,26.56
2022-09-13T15:58:46.308Z,26.56
2022-09-13T16:00:49.812Z,26.47
2022-09-13T16:02:53.844Z,26.48
2022-09-13T16:04:57.743Z,26.38
2022-09-13T16:07:01.109Z,26.36
2022-09-13T16:09:12.445Z,26.37
2022-09-13T16:11:17.190Z,26.38
2022-09-13T16:13:20.531Z,26.38
2022-09-13T16:15:24.564Z,26.24
2022-09-13T16:17:29.029Z,26.17
2022-09-13T16:19:32.286Z,26.19
2022-09-13T16:21:35.562Z,26.19
2022-09-13T16:23:38.879Z,26.13
2022-09-13T16:25:42.919Z,26.08
2022-09-13T16:27:47.698Z,26.10
2022-09-13T16:29:51.110Z,26.07
2022-09-13T16:31:54.713Z,26.05
2022-09-13T16:33:58.265Z,26.10
2022-09-13T16:36:02.435Z,26.07
2022-09-13T16:38:06.219Z,26.09
2022-09-13T16:40:10.959Z,26.08
2022-09-13T16:42:15.288Z,26.06
2022-09-13T16:44:20.345Z,26.02
2022-09-13T16:46:24.267Z,26.02
2022-09-13T16:48:27.686Z,25.96
2022-09-13T16:50:34.365Z,25.92
2022-09-13T16:52:39.255Z,25.60
2022-09-13T16:54:42.991Z,25.86
2022-09-13T16:56:46.335Z,25.78
2022-09-13T16:58:50.659Z,25.72
2022-09-13T17:00:55.309Z,25.73
2022-09-13T17:02:59.035Z,25.75
2022-09-13T17:05:03.687Z,25.74
2022-09-13T17:07:07.354Z,25.71
2022-09-13T17:09:11.015Z,25.70
2022-09-13T17:11:16.723Z,25.63
2022-09-13T17:13:20.462Z,25.63
2022-09-13T17:15:23.865Z,25.56
2022-09-13T17:17:29.666Z,25.54
2022-09-13T17:19:34.489Z,25.58
2022-09-13T17:21:37.998Z,25.59
2022-09-13T17:23:41.335Z,25.61
2022-09-13T17:25:46.871Z,25.59
2022-09-13T17:27:50.284Z,25.58
2022-09-13T17:29:53.598Z,25.57
2022-09-13T17:31:56.902Z,25.54
2022-09-13T17:34:01.636Z,25.52
2022-09-13T17:36:07.350Z,25.52
2022-09-13T17:38:11.480Z,25.48
2022-09-13T17:40:14.860Z,25.40
2022-09-13T17:42:23.001Z,25.46
2022-09-13T17:44:27.105Z,25.41
2022-09-13T17:46:31.135Z,25.42
2022-09-13T17:48:35.009Z,25.38
2022-09-13T17:50:39.629Z,25.11
2022-09-13T17:52:43.262Z,25.05
2022-09-13T17:54:47.349Z,24.99
2022-09-13T17:56:51.698Z,24.88
2022-09-13T17:58:55.021Z,24.82
2022-09-13T18:01:02.962Z,24.82
2022-09-13T18:03:06.381Z,24.81
2022-09-13T18:05:13.590Z,24.73
2022-09-13T18:07:18.946Z,24.69
2022-09-13T18:09:23.038Z,24.38
2022-09-13T18:11:26.416Z,24.36
2022-09-13T18:13:29.800Z,24.24
2022-09-13T18:15:33.180Z,24.21
2022-09-13T18:17:36.569Z,24.23
2022-09-13T18:19:46.413Z,24.02
2022-09-13T18:21:50.696Z,23.43
2022-09-13T18:23:58.998Z,23.90
2022-09-13T18:26:06.474Z,23.60
2022-09-13T18:28:13.304Z,23.44
2022-09-13T18:30:16.855Z,23.37
2022-09-13T18:32:20.187Z,23.27
2022-09-13T18:34:27.446Z,22.99
2022-09-13T18:36:33.277Z,23.00
2022-09-13T18:38:38.364Z,23.04
2022-09-13T18:40:43.021Z,22.99
2022-09-13T18:42:46.299Z,23.02
2022-09-13T18:44:50.831Z,22.88
2022-09-13T18:46:54.318Z,22.84
2022-09-13T18:48:58.414Z,22.73
2022-09-13T18:51:02.089Z,22.70
2022-09-13T18:53:05.482Z,22.65
2022-09-13T18:55:09.368Z,22.59
2022-09-13T18:57:14.482Z,22.50
2022-09-13T18:59:17.852Z,22.51
2022-09-13T19:01:24.926Z,22.45
2022-09-13T19:03:28.575Z,22.30
2022-09-13T19:05:33.247Z,22.37
2022-09-13T19:07:36.661Z,22.35
2022-09-13T19:09:40.071Z,22.50
2022-09-13T19:11:47.773Z,22.45
2022-09-13T19:13:53.049Z,22.43
2022-09-13T19:15:58.876Z,22.44
2022-09-13T19:18:02.417Z,22.41
2022-09-13T19:20:06.834Z,22.50
2022-09-13T19:22:10.180Z,22.47
2022-09-13T19:24:18.429Z,22.41
2022-09-13T19:26:24.272Z,22.53
2022-09-13T19:28:27.637Z,22.49
2022-09-13T19:30:34.654Z,22.37
2022-09-13T19:32:37.961Z,22.36
2022-09-13T19:34:41.249Z,22.28
2022-09-13T19:36:44.592Z,22.24
2022-09-13T19:38:48.233Z,22.15
2022-09-13T19:40:57.233Z,22.21
2022-09-13T19:43:01.418Z,22.30
2022-09-13T19:45:05.201Z,22.20
2022-09-13T19:48:02.292Z,22.19
2022-09-13T19:49:33.710Z,22.17
2022-09-13T19:51:39.087Z,22.21
2022-09-13T19:53:56.884Z,22.11
2022-09-13T19:56:01.556Z,22.06
2022-09-13T19:58:05.024Z,22.03
2022-09-13T20:00:10.594Z,22.00
2022-09-13T20:02:15.693Z,21.85
2022-09-13T20:04:23.530Z,21.74
2022-09-13T20:06:28.683Z,21.77
2022-09-13T20:08:33.015Z,21.82
2022-09-13T20:10:38.520Z,21.88
2022-09-13T20:12:41.855Z,21.93
2022-09-13T20:14:45.167Z,21.91
2022-09-13T20:16:49.022Z,21.92
2022-09-13T20:18:53.792Z,21.94
2022-09-13T20:20:58.690Z,22.01
2022-09-13T20:23:02.343Z,21.96
2022-09-13T20:25:07.069Z,21.84
2022-09-13T20:27:10.619Z,21.82
2022-09-13T20:29:14.950Z,21.64
2022-09-13T20:31:18.322Z,21.58
2022-09-13T20:33:21.826Z,21.59
2022-09-13T20:35:26.859Z,21.56
2022-09-13T20:37:30.156Z,21.80
2022-09-13T20:39:33.459Z,21.78
2022-09-13T20:41:36.881Z,21.70
2022-09-13T20:43:41.149Z,21.59
2022-09-13T20:45:44.468Z,21.62
2022-09-13T20:47:47.956Z,21.57
2022-09-13T20:49:51.279Z,21.57
2022-09-13T20:51:55.999Z,21.69
2022-09-13T20:54:00.974Z,21.79
2022-09-13T20:56:05.007Z,21.83
2022-09-13T20:58:08.469Z,21.73
2022-09-13T21:00:13.851Z,21.59
2022-09-13T21:02:17.340Z,21.22
2022-09-13T21:04:20.951Z,21.28
2022-09-13T21:06:26.338Z,21.27
2022-09-13T21:08:42.130Z,21.36
2022-09-13T21:10:56.750Z,21.39
2022-09-13T21:13:00.325Z,21.36
2022-09-13T21:15:03.881Z,21.35
2022-09-13T21:17:08.423Z,21.02
2022-09-13T21:19:12.212Z,20.93
2022-09-13T21:21:17.620Z,20.82
2022-09-13T21:23:20.945Z,20.93
2022-09-13T21:25:25.631Z,20.93
2022-09-13T21:27:29.139Z,21.02
2022-09-13T21:29:32.852Z,21.06
2022-09-13T21:31:37.110Z,21.13
2022-09-13T21:33:41.012Z,21.20
2022-09-13T21:35:44.292Z,21.21
2022-09-13T21:37:47.904Z,21.31
2022-09-13T21:39:51.503Z,21.44
2022-09-13T21:41:56.577Z,21.49
2022-09-13T21:44:00.051Z,21.48
2022-09-13T21:46:05.664Z,21.40
2022-09-13T21:48:09.507Z,21.40
2022-09-13T21:50:12.799Z,21.43
2022-09-13T21:52:17.076Z,21.44
2022-09-13T21:54:21.085Z,21.45
2022-09-13T21:56:30.794Z,21.40
2022-09-13T21:58:36.785Z,21.42
2022-09-13T22:00:40.198Z,21.30
2022-09-13T22:02:43.609Z,21.40
2022-09-13T22:04:46.943Z,21.44
2022-09-13T22:06:53.491Z,21.47
2022-09-13T22:08:59.275Z,21.34
2022-09-13T22:11:07.648Z,21.39
2022-09-13T22:13:10.916Z,21.45
2022-09-13T22:15:17.128Z,21.48
2022-09-13T22:17:20.427Z,21.47
2022-09-13T22:19:25.983Z,21.49
2022-09-13T22:21:33.396Z,21.51
2022-09-13T22:23:37.701Z,21.39
2022-09-13T22:25:42.671Z,21.37
2022-09-13T22:27:45.942Z,21.20
2022-09-13T22:29:49.281Z,21.23
2022-09-13T22:31:54.367Z,21.26
2022-09-13T22:33:59.583Z,21.28
2022-09-13T22:36:06.148Z,21.18
2022-09-13T22:38:09.591Z,21.26
2022-09-13T22:40:13.139Z,21.29
2022-09-13T22:42:16.625Z,21.27
2022-09-13T22:44:19.905Z,21.25
2022-09-13T22:46:25.251Z,21.23
2022-09-13T22:48:30.795Z,21.19
2022-09-13T22:50:34.082Z,21.13
2022-09-13T22:52:39.119Z,21.10
2022-09-13T22:54:43.301Z,21.03
2022-09-13T22:56:47.525Z,21.15
2022-09-13T22:58:54.564Z,21.17
2022-09-13T23:01:04.464Z,21.09
2022-09-13T23:03:08.648Z,21.01
2022-09-13T23:05:13.508Z,21.05
2022-09-13T23:07:16.797Z,21.10
2022-09-13T23:09:20.061Z,21.07
2022-09-13T23:11:25.626Z,21.09
2022-09-13T23:13:28.890Z,21.10
2022-09-13T23:15:32.172Z,21.07
2022-09-13T23:17:35.626Z,20.99
2022-09-13T23:19:38.940Z,21.04
2022-09-13T23:21:44.624Z,21.11
2022-09-13T23:23:48.029Z,21.07
2022-09-13T23:25:51.649Z,21.08
2022-09-13T23:27:55.027Z,21.03
2022-09-13T23:29:58.398Z,21.02
2022-09-13T23:32:02.562Z,21.00
2022-09-13T23:34:07.829Z,21.01
2022-09-13T23:36:12.862Z,21.01
2022-09-13T23:38:17.671Z,20.97
2022-09-13T23:40:22.784Z,21.00
2022-09-13T23:42:26.434Z,21.00
2022-09-13T23:44:30.084Z,20.99
2022-09-13T23:46:33.447Z,20.98
2022-09-13T23:48:36.872Z,20.77
2022-09-13T23:50:40.218Z,20.89
2022-09-13T23:52:43.489Z,20.88
2022-09-13T23:54:48.175Z,20.82
2022-09-13T23:56:51.460Z,20.78
2022-09-13T23:58:57.095Z,20.83
